createdAt,value
2022-07-29T00:02:25.202Z,96204.66
2022-07-29T00:04:51.737Z,96196.66
2022-07-29T00:07:18.300Z,96204.81
2022-07-29T00:09:51.034Z,96204.47
2022-07-29T00:12:25.559Z,96206.00
2022-07-29T00:14:53.935Z,96198.00
2022-07-29T00:17:20.453Z,96193.41
2022-07-29T00:19:47.009Z,96186.84
2022-07-29T00:22:13.559Z,96197.09
2022-07-29T00:24:40.108Z,96193.59
2022-07-29T00:27:07.156Z,96189.09
2022-07-29T00:29:34.849Z,96197.50
2022-07-29T00:32:02.446Z,96194.84
2022-07-29T00:34:47.661Z,96191.72
2022-07-29T00:37:14.200Z,96192.22
2022-07-29T00:39:40.757Z,96193.94
2022-07-29T00:42:07.950Z,96186.88
2022-07-29T00:44:38.830Z,96197.13
2022-07-29T00:47:05.846Z,96187.56
2022-07-29T00:49:32.723Z,96178.13
2022-07-29T00:52:00.105Z,96189.97
2022-07-29T00:54:27.874Z,96197.00
2022-07-29T00:56:54.511Z,96184.84
2022-07-29T00:59:21.113Z,96195.34
2022-07-29T01:01:47.662Z,96190.81
2022-07-29T01:04:14.441Z,96197.00
2022-07-29T01:06:43.799Z,96188.72
2022-07-29T01:09:11.919Z,96195.59
2022-07-29T01:11:39.627Z,96195.16
2022-07-29T01:14:08.112Z,96189.06
2022-07-29T01:16:46.824Z,96194.78
2022-07-29T01:19:42.765Z,96192.16
2022-07-29T01:22:30.856Z,96189.06
2022-07-29T01:25:11.056Z,96186.00
2022-07-29T01:28:10.261Z,96186.75
2022-07-29T01:30:40.745Z,96181.31
2022-07-29T01:33:34.540Z,96180.56
2022-07-29T01:36:06.039Z,96174.19
2022-07-29T01:38:32.550Z,96176.00
2022-07-29T01:41:10.504Z,96168.31
2022-07-29T01:43:52.683Z,96160.75
2022-07-29T01:46:26.511Z,96156.13
2022-07-29T01:49:00.962Z,96159.22
2022-07-29T01:51:37.054Z,96156.34
2022-07-29T01:54:11.484Z,96142.38
2022-07-29T01:56:39.949Z,96141.56
2022-07-29T01:59:09.244Z,96144.91
2022-07-29T02:01:40.485Z,96133.66
2022-07-29T02:04:11.141Z,96140.94
2022-07-29T02:06:55.828Z,96131.44
2022-07-29T02:09:24.383Z,96104.09
2022-07-29T02:11:54.537Z,96113.84
2022-07-29T02:14:23.409Z,96106.50
2022-07-29T02:16:53.505Z,96104.59
2022-07-29T02:19:22.172Z,96106.31
2022-07-29T02:21:49.955Z,96097.25
2022-07-29T02:24:18.881Z,96110.16
2022-07-29T02:26:46.740Z,96118.59
2022-07-29T02:29:15.805Z,96115.31
2022-07-29T02:31:44.571Z,96118.31
2022-07-29T02:34:12.840Z,96120.66
2022-07-29T02:36:41.448Z,96122.59
2022-07-29T02:39:10.775Z,96118.03
2022-07-29T02:41:50.109Z,96111.94
2022-07-29T02:44:20.373Z,96113.53
2022-07-29T02:47:05.164Z,96118.53
2022-07-29T02:50:04.583Z,96112.75
2022-07-29T02:52:43.117Z,96105.13
2022-07-29T02:55:34.609Z,96112.13
2022-07-29T02:58:29.322Z,96110.75
2022-07-29T03:01:03.555Z,96096.84
2022-07-29T03:03:34.483Z,96108.63
2022-07-29T03:06:03.363Z,96105.94
2022-07-29T03:08:31.892Z,96105.16
2022-07-29T03:10:58.797Z,96100.28
2022-07-29T03:13:26.792Z,96100.69
2022-07-29T03:15:54.535Z,96101.69
2022-07-29T03:18:21.594Z,96102.38
2022-07-29T03:20:48.114Z,96115.34
2022-07-29T03:23:21.032Z,96108.16
2022-07-29T03:25:47.877Z,96117.69
2022-07-29T03:28:14.991Z,96117.69
2022-07-29T03:30:44.601Z,96115.34
2022-07-29T03:33:13.398Z,96112.34
2022-07-29T03:35:40.430Z,96126.34
2022-07-29T03:38:07.023Z,96123.75
2022-07-29T03:40:42.438Z,96126.34
2022-07-29T03:43:10.899Z,96125.31
2022-07-29T03:45:39.072Z,96121.19
2022-07-29T03:48:13.766Z,96112.13
2022-07-29T03:50:40.754Z,96123.53
2022-07-29T03:53:07.360Z,96119.41
2022-07-29T03:55:41.113Z,96122.13
2022-07-29T03:58:09.121Z,96119.88
2022-07-29T04:00:37.433Z,96113.34
2022-07-29T04:03:05.475Z,96117.53
2022-07-29T04:05:37.403Z,96105.31
2022-07-29T04:08:03.996Z,96114.50
2022-07-29T04:10:31.911Z,96118.00
2022-07-29T04:13:00.148Z,96117.94
2022-07-29T04:15:26.836Z,96129.41
2022-07-29T04:17:58.513Z,96116.16
2022-07-29T04:20:24.967Z,96116.34
2022-07-29T04:22:51.445Z,96135.47
2022-07-29T04:25:18.284Z,96140.50
2022-07-29T04:28:01.194Z,96147.09
2022-07-29T04:30:28.104Z,96146.75
2022-07-29T04:32:54.613Z,96151.38
2022-07-29T04:35:21.608Z,96150.56
2022-07-29T04:37:48.733Z,96153.47
2022-07-29T04:40:15.445Z,96161.78
2022-07-29T04:42:46.759Z,96166.44
2022-07-29T04:45:14.741Z,96153.56
2022-07-29T04:47:41.290Z,96177.69
2022-07-29T04:50:09.132Z,96182.16
2022-07-29T04:52:36.300Z,96177.06
2022-07-29T04:55:03.813Z,96172.69
2022-07-29T04:57:30.254Z,96172.56
2022-07-29T04:59:56.799Z,96168.72
2022-07-29T05:02:23.466Z,96170.00
2022-07-29T05:04:50.031Z,96171.53
2022-07-29T05:07:16.508Z,96171.94
2022-07-29T05:09:42.974Z,96173.72
2022-07-29T05:12:09.675Z,96163.09
2022-07-29T05:14:36.241Z,96161.09
2022-07-29T05:17:02.724Z,96172.78
2022-07-29T05:19:29.214Z,96159.31
2022-07-29T05:21:55.689Z,96173.69
2022-07-29T05:24:22.324Z,96166.66
2022-07-29T05:26:48.766Z,96174.69
2022-07-29T05:29:44.774Z,96163.75
2022-07-29T05:32:01.789Z,96164.44
2022-07-29T05:34:28.260Z,96162.75
2022-07-29T05:36:54.832Z,96169.91
2022-07-29T05:39:21.633Z,96161.94
2022-07-29T05:41:51.848Z,96182.00
2022-07-29T05:44:19.010Z,96168.69
2022-07-29T05:46:45.982Z,96167.44
2022-07-29T05:49:13.026Z,96179.44
2022-07-29T05:51:53.719Z,96173.56
2022-07-29T05:54:20.463Z,96180.25
2022-07-29T05:56:46.902Z,96173.91
2022-07-29T05:59:18.173Z,96173.91
2022-07-29T06:01:44.953Z,96174.28
2022-07-29T06:04:11.505Z,96173.09
2022-07-29T06:06:38.076Z,96176.25
2022-07-29T06:09:12.796Z,96176.38
2022-07-29T06:11:40.488Z,96174.47
2022-07-29T06:14:06.994Z,96177.50
2022-07-29T06:16:33.687Z,96177.06
2022-07-29T06:19:00.270Z,96184.66
2022-07-29T06:21:26.825Z,96176.56
2022-07-29T06:23:53.295Z,96177.25
2022-07-29T06:26:30.863Z,96178.00
2022-07-29T06:28:58.109Z,96179.69
2022-07-29T06:31:24.830Z,96179.50
2022-07-29T06:33:51.429Z,96180.31
2022-07-29T06:36:21.198Z,96186.53
2022-07-29T06:38:51.271Z,96191.25
2022-07-29T06:41:19.010Z,96184.84
2022-07-29T06:43:52.208Z,96194.22
2022-07-29T06:46:22.231Z,96193.81
2022-07-29T06:48:49.608Z,96193.56
2022-07-29T06:51:17.330Z,96192.53
2022-07-29T06:53:59.448Z,96205.38
2022-07-29T06:56:38.161Z,96206.22
2022-07-29T06:59:07.176Z,96201.41
2022-07-29T07:01:33.731Z,96207.13
2022-07-29T07:04:00.332Z,96206.25
2022-07-29T07:06:27.003Z,96196.84
2022-07-29T07:08:53.470Z,96205.56
2022-07-29T07:11:20.004Z,96209.16
2022-07-29T07:13:46.493Z,96220.81
2022-07-29T07:16:13.047Z,96209.09
2022-07-29T07:18:39.624Z,96218.22
2022-07-29T07:21:06.704Z,96217.16
2022-07-29T07:23:33.251Z,96220.16
2022-07-29T07:25:59.769Z,96218.75
2022-07-29T07:28:26.265Z,96230.78
2022-07-29T07:30:53.044Z,96225.44
2022-07-29T07:33:19.921Z,96221.66
2022-07-29T07:35:46.488Z,96228.44
2022-07-29T07:38:13.287Z,96221.63
2022-07-29T07:40:40.187Z,96225.88
2022-07-29T07:43:06.936Z,96230.03
2022-07-29T07:45:34.078Z,96211.75
2022-07-29T07:48:00.981Z,96211.47
2022-07-29T07:50:27.603Z,96222.81
2022-07-29T07:52:58.462Z,96198.72
2022-07-29T07:55:25.251Z,96213.38
2022-07-29T07:57:51.767Z,96213.16
2022-07-29T08:00:18.600Z,96215.31
2022-07-29T08:02:46.177Z,96205.88
2022-07-29T08:05:16.901Z,96207.56
2022-07-29T08:07:45.744Z,96195.00
2022-07-29T08:10:12.938Z,96192.75
2022-07-29T08:12:39.537Z,96206.34
2022-07-29T08:15:08.638Z,96198.25
2022-07-29T08:17:35.371Z,96192.75
2022-07-29T08:20:02.096Z,96205.69
2022-07-29T08:22:29.543Z,96204.69
2022-07-29T08:24:57.161Z,96202.44
2022-07-29T08:27:43.021Z,96201.34
2022-07-29T08:30:11.336Z,96210.56
2022-07-29T08:32:53.087Z,96201.81
2022-07-29T08:35:22.247Z,96208.78
2022-07-29T08:37:48.839Z,96209.06
2022-07-29T08:40:15.706Z,96206.81
2022-07-29T08:42:42.272Z,96208.41
2022-07-29T08:45:09.790Z,96207.63
2022-07-29T08:47:40.452Z,96211.63
2022-07-29T08:50:08.800Z,96201.19
2022-07-29T08:52:38.080Z,96204.59
2022-07-29T08:55:06.961Z,96197.97
2022-07-29T08:57:34.806Z,96201.84
2022-07-29T09:00:11.490Z,96204.00
2022-07-29T09:02:46.729Z,96208.31
2022-07-29T09:05:14.370Z,96213.47
2022-07-29T09:07:44.072Z,96209.63
2022-07-29T09:10:11.098Z,96209.75
2022-07-29T09:12:38.438Z,96200.56
2022-07-29T09:15:05.366Z,96209.91
2022-07-29T09:17:50.657Z,96200.25
2022-07-29T09:20:22.555Z,96197.84
2022-07-29T09:22:54.183Z,96201.69
2022-07-29T09:25:37.487Z,96194.41
2022-07-29T09:28:09.445Z,96186.50
2022-07-29T09:30:37.011Z,96192.00
2022-07-29T09:33:04.677Z,96203.47
2022-07-29T09:35:32.112Z,96198.97
2022-07-29T09:37:58.904Z,96192.06
2022-07-29T09:40:29.113Z,96198.50
2022-07-29T09:42:58.793Z,96195.47
2022-07-29T09:45:29.737Z,96196.75
2022-07-29T09:47:58.434Z,96193.31
2022-07-29T09:50:36.623Z,96183.59
2022-07-29T09:53:03.094Z,96179.09
2022-07-29T09:55:29.574Z,96183.06
2022-07-29T09:58:16.183Z,96171.88
2022-07-29T10:00:43.842Z,96188.69
2022-07-29T10:03:10.602Z,96187.59
2022-07-29T10:05:40.565Z,96175.09
2022-07-29T10:08:07.137Z,96173.97
2022-07-29T10:10:35.979Z,96179.81
2022-07-29T10:13:10.994Z,96172.41
2022-07-29T10:15:44.766Z,96171.69
2022-07-29T10:18:13.112Z,96170.09
2022-07-29T10:20:40.150Z,96181.09
2022-07-29T10:23:06.819Z,96171.25
2022-07-29T10:25:33.645Z,96181.50
2022-07-29T10:28:00.353Z,96168.13
2022-07-29T10:30:27.729Z,96167.59
2022-07-29T10:33:25.366Z,96168.91
2022-07-29T10:36:04.244Z,96167.41
2022-07-29T10:38:53.500Z,96165.78
2022-07-29T10:41:43.932Z,96162.84
2022-07-29T10:44:25.971Z,96177.94
2022-07-29T10:46:53.531Z,96168.56
2022-07-29T10:49:25.345Z,96171.41
2022-07-29T10:52:06.144Z,96169.50
2022-07-29T10:54:44.121Z,96160.78
2022-07-29T10:57:14.009Z,96170.66
2022-07-29T10:59:42.831Z,96151.66
2022-07-29T11:02:54.400Z,96161.41
2022-07-29T11:05:22.097Z,96164.75
2022-07-29T11:08:19.491Z,96164.97
2022-07-29T11:11:21.987Z,96154.16
2022-07-29T11:13:51.509Z,96149.38
2022-07-29T11:16:23.141Z,96161.28
2022-07-29T11:19:13.852Z,96154.88
2022-07-29T11:21:53.496Z,96156.91
2022-07-29T11:24:28.809Z,96159.16
2022-07-29T11:27:11.136Z,96150.16
2022-07-29T11:29:50.376Z,96147.84
2022-07-29T11:32:22.705Z,96141.97
2022-07-29T11:34:51.547Z,96148.66
2022-07-29T11:37:20.227Z,96143.22
2022-07-29T11:40:01.482Z,96142.00
2022-07-29T11:42:34.342Z,96146.63
2022-07-29T11:45:08.786Z,96149.13
2022-07-29T11:48:05.262Z,96138.69
2022-07-29T11:50:45.804Z,96136.59
2022-07-29T11:53:15.213Z,96140.94
2022-07-29T11:55:51.583Z,96128.22
2022-07-29T11:58:25.230Z,96120.91
2022-07-29T12:00:55.250Z,96127.97
2022-07-29T12:03:35.157Z,96119.59
2022-07-29T12:06:04.843Z,96116.66
2022-07-29T12:08:41.688Z,96118.91
2022-07-29T12:11:17.387Z,96124.09
2022-07-29T12:13:47.315Z,96113.47
2022-07-29T12:16:16.306Z,96119.38
2022-07-29T12:19:00.282Z,96119.94
2022-07-29T12:21:28.839Z,96117.94
2022-07-29T12:24:00.455Z,96110.38
2022-07-29T12:26:31.548Z,96112.91
2022-07-29T12:29:03.119Z,96116.63
2022-07-29T12:31:43.474Z,96104.34
2022-07-29T12:34:13.538Z,96099.31
2022-07-29T12:36:41.407Z,96105.38
2022-07-29T12:39:08.411Z,96105.56
2022-07-29T12:41:35.651Z,96109.25
2022-07-29T12:44:02.335Z,96106.78
2022-07-29T12:46:29.440Z,96111.97
2022-07-29T12:48:57.538Z,96112.97
2022-07-29T12:51:39.205Z,96109.34
2022-07-29T12:54:23.796Z,96108.47
2022-07-29T12:57:00.579Z,96103.91
2022-07-29T12:59:27.077Z,96103.47
2022-07-29T13:01:53.604Z,96110.13
2022-07-29T13:04:34.480Z,96112.66
2022-07-29T13:07:08.169Z,96108.38
2022-07-29T13:09:43.446Z,96113.69
2022-07-29T13:12:12.529Z,96094.66
2022-07-29T13:14:47.525Z,96091.91
2022-07-29T13:17:19.515Z,96087.34
2022-07-29T13:19:54.018Z,96094.88
2022-07-29T13:22:25.058Z,96088.75
2022-07-29T13:24:52.909Z,96100.09
2022-07-29T13:27:22.672Z,96089.75
2022-07-29T13:29:52.128Z,96088.50
2022-07-29T13:32:18.996Z,96086.63
2022-07-29T13:34:55.046Z,96092.84
2022-07-29T13:37:21.900Z,96087.97
2022-07-29T13:39:53.241Z,96085.41
2022-07-29T13:42:20.601Z,96074.31
2022-07-29T13:44:47.123Z,96079.44
2022-07-29T13:47:13.893Z,96065.31
2022-07-29T13:49:40.365Z,96072.28
2022-07-29T13:52:08.510Z,96065.34
2022-07-29T13:54:41.964Z,96063.22
2022-07-29T13:57:09.450Z,96048.00
2022-07-29T13:59:36.147Z,96056.22
2022-07-29T14:02:03.357Z,96048.06
2022-07-29T14:04:30.151Z,96048.88
2022-07-29T14:06:56.687Z,96045.41
2022-07-29T14:09:23.756Z,96044.31
2022-07-29T14:11:51.441Z,96046.84
2022-07-29T14:14:18.423Z,96047.34
2022-07-29T14:16:49.103Z,96041.25
2022-07-29T14:19:18.766Z,96043.81
2022-07-29T14:21:45.823Z,96037.38
2022-07-29T14:24:17.036Z,96039.66
2022-07-29T14:26:48.144Z,96035.97
2022-07-29T14:29:14.717Z,96040.19
2022-07-29T14:31:41.342Z,96035.69
2022-07-29T14:34:07.869Z,96039.22
2022-07-29T14:36:34.327Z,96036.47
2022-07-29T14:39:00.787Z,96038.25
2022-07-29T14:41:29.231Z,96041.00
2022-07-29T14:43:55.823Z,96038.72
2022-07-29T14:46:22.392Z,96033.81
2022-07-29T14:48:49.045Z,96038.72
2022-07-29T14:51:15.618Z,96041.78
2022-07-29T14:53:42.096Z,96036.44
2022-07-29T14:56:34.974Z,96039.69
2022-07-29T14:58:54.977Z,96038.88
2022-07-29T15:01:21.671Z,96039.09
2022-07-29T15:03:48.335Z,96028.69
2022-07-29T15:06:17.429Z,96025.56
2022-07-29T15:08:43.935Z,96029.19
2022-07-29T15:11:10.429Z,96028.34
2022-07-29T15:13:36.938Z,96033.38
2022-07-29T15:16:03.715Z,96039.94
2022-07-29T15:18:30.177Z,96038.88
2022-07-29T15:20:56.679Z,96036.59
2022-07-29T15:23:23.497Z,96019.53
2022-07-29T15:25:49.948Z,96033.75
2022-07-29T15:28:16.413Z,96023.78
2022-07-29T15:30:43.060Z,96020.50
2022-07-29T15:33:10.478Z,96021.38
2022-07-29T15:35:40.586Z,96018.47
2022-07-29T15:38:07.753Z,96025.31
2022-07-29T15:40:34.582Z,96027.19
2022-07-29T15:43:06.735Z,96027.78
2022-07-29T15:45:40.969Z,96015.16
2022-07-29T15:48:10.155Z,96018.44
2022-07-29T15:50:41.393Z,96017.13
2022-07-29T15:53:07.995Z,96027.81
2022-07-29T15:55:34.691Z,96019.13
2022-07-29T15:58:01.152Z,96030.53
2022-07-29T16:00:28.137Z,96024.19
2022-07-29T16:02:54.627Z,96018.94
2022-07-29T16:05:21.083Z,96016.22
2022-07-29T16:07:47.551Z,96016.97
2022-07-29T16:10:14.021Z,96023.06
2022-07-29T16:12:40.509Z,96012.75
2022-07-29T16:15:10.499Z,96014.59
2022-07-29T16:17:38.308Z,96006.94
2022-07-29T16:20:06.405Z,96006.38
2022-07-29T16:22:32.903Z,96006.09
2022-07-29T16:24:59.411Z,96013.56
2022-07-29T16:27:37.775Z,96006.00
2022-07-29T16:30:06.308Z,96017.66
2022-07-29T16:32:32.734Z,96018.66
2022-07-29T16:34:59.206Z,96020.09
2022-07-29T16:37:25.871Z,96015.03
2022-07-29T16:39:55.415Z,96011.81
2022-07-29T16:42:44.430Z,96015.31
2022-07-29T16:45:09.007Z,96010.34
2022-07-29T16:47:36.366Z,96019.88
2022-07-29T16:50:03.758Z,96016.09
2022-07-29T16:52:30.215Z,96015.25
2022-07-29T16:54:56.679Z,96022.94
2022-07-29T16:57:24.246Z,96014.06
2022-07-29T16:59:52.018Z,96031.97
2022-07-29T17:02:19.100Z,96030.47
2022-07-29T17:04:45.895Z,96034.69
2022-07-29T17:07:12.697Z,96024.94
2022-07-29T17:09:39.234Z,96038.03
2022-07-29T17:12:06.066Z,96041.69
2022-07-29T17:14:32.601Z,96041.25
2022-07-29T17:17:02.226Z,96042.94
2022-07-29T17:19:31.378Z,96044.31
2022-07-29T17:22:06.440Z,96044.63
2022-07-29T17:24:35.686Z,96042.84
2022-07-29T17:27:02.206Z,96052.91
2022-07-29T17:29:28.746Z,96046.00
2022-07-29T17:31:55.458Z,96047.78
2022-07-29T17:34:21.975Z,96043.13
2022-07-29T17:36:48.536Z,96043.13
2022-07-29T17:39:15.007Z,96053.41
2022-07-29T17:41:41.760Z,96047.38
2022-07-29T17:44:09.416Z,96057.78
2022-07-29T17:46:36.228Z,96057.63
2022-07-29T17:49:02.939Z,96067.09
2022-07-29T17:51:29.563Z,96065.47
2022-07-29T17:53:56.046Z,96074.16
2022-07-29T17:56:22.565Z,96067.06
2022-07-29T17:58:49.111Z,96070.25
2022-07-29T18:01:50.593Z,96077.44
2022-07-29T18:05:00.837Z,96075.16
2022-07-29T18:07:36.696Z,96082.94
2022-07-29T18:10:03.704Z,96081.41
2022-07-29T18:12:30.227Z,96082.59
2022-07-29T18:14:56.677Z,96081.22
2022-07-29T18:17:45.947Z,96089.78
2022-07-29T18:20:10.985Z,96081.81
2022-07-29T18:22:37.506Z,96088.94
2022-07-29T18:28:50.277Z,96099.41
2022-07-29T18:35:05.800Z,96107.72
2022-07-29T18:38:01.058Z,96107.09
2022-07-29T18:40:21.247Z,96114.56
2022-07-29T18:42:47.937Z,96112.25
2022-07-29T18:45:19.136Z,96116.16
2022-07-29T18:47:46.018Z,96136.28
2022-07-29T18:50:14.066Z,96135.53
2022-07-29T18:52:40.593Z,96147.50
2022-07-29T18:55:07.771Z,96146.56
2022-07-29T18:57:54.359Z,96166.78
2022-07-29T19:00:21.365Z,96172.09
2022-07-29T19:02:49.967Z,96169.03
2022-07-29T19:05:16.602Z,96170.09
2022-07-29T19:07:43.110Z,96185.84
2022-07-29T19:10:10.015Z,96195.81
2022-07-29T19:12:37.518Z,96209.75
2022-07-29T19:15:04.569Z,96209.41
2022-07-29T19:17:31.121Z,96211.16
2022-07-29T19:19:57.717Z,96218.81
2022-07-29T19:22:24.404Z,96216.47
2022-07-29T19:24:51.257Z,96224.44
2022-07-29T19:27:18.266Z,96232.75
2022-07-29T19:29:45.018Z,96219.28
2022-07-29T19:32:12.390Z,96243.00
2022-07-29T19:34:39.064Z,96244.50
2022-07-29T19:37:12.986Z,96250.09
2022-07-29T19:39:39.473Z,96241.34
2022-07-29T19:42:06.210Z,96241.47
2022-07-29T19:44:32.690Z,96259.31
2022-07-29T19:47:00.703Z,96266.69
2022-07-29T19:49:27.594Z,96262.66
2022-07-29T19:51:54.248Z,96273.09
2022-07-29T19:54:20.848Z,96269.91
2022-07-29T19:56:47.350Z,96279.81
2022-07-29T19:59:14.520Z,96275.94
2022-07-29T20:01:41.312Z,96277.34
2022-07-29T20:04:07.831Z,96288.75
2022-07-29T20:06:34.359Z,96282.00
2022-07-29T20:09:00.800Z,96295.91
2022-07-29T20:11:29.621Z,96299.09
2022-07-29T20:13:56.150Z,96291.66
2022-07-29T20:16:22.656Z,96297.91
2022-07-29T20:18:51.878Z,96300.88
2022-07-29T20:21:18.410Z,96293.88
2022-07-29T20:23:45.872Z,96301.00
2022-07-29T20:26:12.451Z,96306.50
2022-07-29T20:28:40.249Z,96318.75
2022-07-29T20:31:06.956Z,96307.94
2022-07-29T20:33:33.470Z,96318.38
2022-07-29T20:35:59.972Z,96314.94
2022-07-29T20:38:26.511Z,96319.31
2022-07-29T20:40:55.625Z,96317.09
2022-07-29T20:43:22.089Z,96323.91
2022-07-29T20:45:48.920Z,96318.06
2022-07-29T20:48:15.403Z,96318.59
2022-07-29T20:50:42.799Z,96321.69
2022-07-29T20:53:09.436Z,96306.88
2022-07-29T20:55:35.918Z,96309.63
2022-07-29T20:58:02.385Z,96320.28
2022-07-29T21:00:29.045Z,96325.94
2022-07-29T21:02:55.594Z,96324.44
2022-07-29T21:05:22.164Z,96321.47
2022-07-29T21:07:48.662Z,96334.91
2022-07-29T21:10:18.195Z,96338.41
2022-07-29T21:12:48.452Z,96334.59
2022-07-29T21:15:15.118Z,96335.38
2022-07-29T21:17:47.029Z,96339.66
2022-07-29T21:20:16.247Z,96340.78
2022-07-29T21:22:43.411Z,96331.69
2022-07-29T21:25:11.046Z,96339.31
2022-07-29T21:27:56.599Z,96344.72
2022-07-29T21:30:23.158Z,96344.78
2022-07-29T21:32:49.697Z,96345.13
2022-07-29T21:35:35.768Z,96338.25
2022-07-29T21:38:02.857Z,96332.88
2022-07-29T21:40:30.410Z,96338.34
2022-07-29T21:42:57.022Z,96347.91
2022-07-29T21:45:23.638Z,96349.41
2022-07-29T21:47:50.085Z,96358.28
2022-07-29T21:50:16.647Z,96351.03
2022-07-29T21:52:43.233Z,96355.00
2022-07-29T21:55:11.397Z,96348.53
2022-07-29T21:57:38.236Z,96336.69
2022-07-29T22:00:06.945Z,96336.84
2022-07-29T22:02:33.424Z,96349.78
2022-07-29T22:05:00.103Z,96345.31
2022-07-29T22:07:54.719Z,96349.63
2022-07-29T22:10:13.089Z,96342.81
2022-07-29T22:12:39.542Z,96341.31
2022-07-29T22:15:06.624Z,96348.25
2022-07-29T22:17:33.260Z,96331.53
2022-07-29T22:19:59.868Z,96337.22
2022-07-29T22:22:26.859Z,96333.78
2022-07-29T22:24:53.363Z,96338.06
2022-07-29T22:27:19.823Z,96331.94
2022-07-29T22:29:46.291Z,96347.16
2022-07-29T22:32:12.795Z,96348.72
2022-07-29T22:34:39.338Z,96346.03
2022-07-29T22:37:05.960Z,96347.53
2022-07-29T22:39:32.399Z,96347.25
2022-07-29T22:41:58.862Z,96350.97
2022-07-29T22:44:25.343Z,96351.72
2022-07-29T22:46:51.838Z,96347.53
2022-07-29T22:49:18.328Z,96330.44
2022-07-29T22:51:44.895Z,96345.63
2022-07-29T22:54:11.363Z,96344.81
2022-07-29T22:56:37.865Z,96332.66
2022-07-29T22:59:04.387Z,96328.44
2022-07-29T23:01:36.047Z,96336.03
2022-07-29T23:04:04.753Z,96339.50
2022-07-29T23:06:31.327Z,96330.31
2022-07-29T23:08:57.829Z,96336.41
2022-07-29T23:11:24.296Z,96333.00
2022-07-29T23:13:50.748Z,96333.41
2022-07-29T23:16:26.601Z,96327.28
2022-07-29T23:18:53.788Z,96328.06
2022-07-29T23:21:20.922Z,96329.56
2022-07-29T23:23:48.556Z,96316.97
2022-07-29T23:26:16.862Z,96326.34
2022-07-29T23:28:44.852Z,96321.44
2022-07-29T23:31:11.549Z,96320.72
2022-07-29T23:33:38.092Z,96324.13
2022-07-29T23:36:04.643Z,96311.63
2022-07-29T23:38:31.164Z,96318.41
2022-07-29T23:40:58.657Z,96314.88
2022-07-29T23:43:25.230Z,96310.84
2022-07-29T23:45:51.742Z,96313.09
2022-07-29T23:48:20.778Z,96316.22
2022-07-29T23:50:47.443Z,96317.38
2022-07-29T23:53:13.928Z,96301.81
2022-07-29T23:55:40.526Z,96306.53
2022-07-29T23:58:06.982Z,96293.94
